createdAt,value
2022-10-10T00:00:53.930Z,0.00
2022-10-10T00:01:53.943Z,0.00
2022-10-10T00:02:53.937Z,0.00
2022-10-10T00:03:53.896Z,0.00
2022-10-10T00:04:53.884Z,0.00
2022-10-10T00:05:53.868Z,0.00
2022-10-10T00:06:53.854Z,0.00
2022-10-10T00:07:53.876Z,0.00
2022-10-10T00:08:53.831Z,0.00
2022-10-10T00:09:53.807Z,0.00
2022-10-10T00:10:54.965Z,0.00
2022-10-10T00:11:53.805Z,0.00
2022-10-10T00:12:53.872Z,0.00
2022-10-10T00:13:53.758Z,0.00
2022-10-10T00:14:53.750Z,0.00
2022-10-10T00:15:53.747Z,0.00
2022-10-10T00:16:53.744Z,0.00
2022-10-10T00:17:53.729Z,0.00
2022-10-10T00:18:53.715Z,0.00
2022-10-10T00:19:53.686Z,0.00
2022-10-10T00:20:53.689Z,0.00
2022-10-10T00:21:53.670Z,0.00
2022-10-10T00:22:54.024Z,0.00
2022-10-10T00:23:53.665Z,0.00
2022-10-10T00:24:53.634Z,0.00
2022-10-10T00:25:53.596Z,0.00
2022-10-10T00:26:53.619Z,0.00
2022-10-10T00:27:53.577Z,0.00
2022-10-10T00:28:53.565Z,0.00
2022-10-10T00:29:53.561Z,0.00
2022-10-10T00:30:53.560Z,0.00
2022-10-10T00:31:53.517Z,0.00
2022-10-10T00:32:53.547Z,0.00
2022-10-10T00:33:53.502Z,0.00
2022-10-10T00:34:53.503Z,0.00
2022-10-10T00:35:53.479Z,0.00
2022-10-10T00:36:53.460Z,0.00
2022-10-10T00:37:53.457Z,0.00
2022-10-10T00:38:53.459Z,0.00
2022-10-10T00:39:53.437Z,0.00
2022-10-10T00:40:53.412Z,0.00
2022-10-10T00:41:53.421Z,0.00
2022-10-10T00:42:53.837Z,0.00
2022-10-10T00:43:53.384Z,0.00
2022-10-10T00:44:53.353Z,0.00
2022-10-10T00:45:53.334Z,0.00
2022-10-10T00:46:53.359Z,0.00
2022-10-10T00:47:53.331Z,0.00
2022-10-10T00:48:53.303Z,0.00
2022-10-10T00:49:53.303Z,0.00
2022-10-10T00:50:53.310Z,0.00
2022-10-10T00:51:53.296Z,0.00
2022-10-10T00:52:53.527Z,0.00
2022-10-10T00:53:53.235Z,0.00
2022-10-10T00:54:53.248Z,0.00
2022-10-10T00:55:53.232Z,0.00
2022-10-10T00:56:53.196Z,0.00
2022-10-10T00:57:53.184Z,0.00
2022-10-10T00:58:53.173Z,0.00
2022-10-10T00:59:53.152Z,0.00
2022-10-10T01:00:53.247Z,0.00
2022-10-10T01:01:53.126Z,0.00
2022-10-10T01:02:53.469Z,0.00
2022-10-10T01:03:53.098Z,0.00
2022-10-10T01:04:53.105Z,0.00
2022-10-10T01:05:53.090Z,0.00
2022-10-10T01:06:53.065Z,0.00
2022-10-10T01:07:53.065Z,0.00
2022-10-10T01:08:53.061Z,0.00
2022-10-10T01:09:53.165Z,0.00
2022-10-10T01:10:53.018Z,0.00
2022-10-10T01:11:53.028Z,0.00
2022-10-10T01:12:53.282Z,0.00
2022-10-10T01:13:52.976Z,0.00
2022-10-10T01:14:52.979Z,0.00
2022-10-10T01:15:52.962Z,0.00
2022-10-10T01:16:52.949Z,0.00
2022-10-10T01:17:52.928Z,0.00
2022-10-10T01:18:52.909Z,0.00
2022-10-10T01:19:52.939Z,0.00
2022-10-10T01:20:52.904Z,0.00
2022-10-10T01:21:52.879Z,0.00
2022-10-10T01:22:53.165Z,0.00
2022-10-10T01:23:52.835Z,0.00
2022-10-10T01:24:52.846Z,0.00
2022-10-10T01:25:52.827Z,0.00
2022-10-10T01:26:52.819Z,0.00
2022-10-10T01:27:52.794Z,0.00
2022-10-10T01:28:52.778Z,0.00
2022-10-10T01:29:52.781Z,0.00
2022-10-10T01:30:52.755Z,0.00
2022-10-10T01:31:52.751Z,0.00
2022-10-10T01:32:53.288Z,0.00
2022-10-10T01:33:52.723Z,0.00
2022-10-10T01:34:52.732Z,0.00
2022-10-10T01:35:52.696Z,0.00
2022-10-10T01:36:52.697Z,0.00
2022-10-10T01:37:52.670Z,0.00
2022-10-10T01:38:52.647Z,0.00
2022-10-10T01:39:52.665Z,0.00
2022-10-10T01:40:52.621Z,0.00
2022-10-10T01:41:52.603Z,0.00
2022-10-10T01:42:52.903Z,0.00
2022-10-10T01:43:52.572Z,0.00
2022-10-10T01:44:52.601Z,0.00
2022-10-10T01:45:52.568Z,0.00
2022-10-10T01:46:52.540Z,0.00
2022-10-10T01:47:52.524Z,0.00
2022-10-10T01:48:52.537Z,0.00
2022-10-10T01:49:52.497Z,0.00
2022-10-10T01:50:52.503Z,0.00
2022-10-10T01:51:52.470Z,0.00
2022-10-10T01:52:52.821Z,0.00
2022-10-10T01:53:52.461Z,0.00
2022-10-10T01:54:52.459Z,0.00
2022-10-10T01:55:52.441Z,0.00
2022-10-10T01:56:52.454Z,0.00
2022-10-10T01:57:52.391Z,0.00
2022-10-10T01:58:52.384Z,0.00
2022-10-10T01:59:52.367Z,0.00
2022-10-10T02:00:52.436Z,0.00
2022-10-10T02:01:52.341Z,0.00
2022-10-10T02:02:52.758Z,0.00
2022-10-10T02:03:52.338Z,0.00
2022-10-10T02:04:52.324Z,0.00
2022-10-10T02:05:52.314Z,0.00
2022-10-10T02:06:52.298Z,0.00
2022-10-10T02:07:52.261Z,0.00
2022-10-10T02:08:52.293Z,0.00
2022-10-10T02:09:52.260Z,0.00
2022-10-10T02:10:52.250Z,0.00
2022-10-10T02:11:52.253Z,0.00
2022-10-10T02:12:52.697Z,0.00
2022-10-10T02:13:52.193Z,0.00
2022-10-10T02:14:52.190Z,0.00
2022-10-10T02:15:52.159Z,0.00
2022-10-10T02:16:52.150Z,0.00
2022-10-10T02:17:52.146Z,0.00
2022-10-10T02:18:52.144Z,0.00
2022-10-10T02:19:52.146Z,0.00
2022-10-10T02:20:52.104Z,0.00
2022-10-10T02:21:52.095Z,0.00
2022-10-10T02:22:52.324Z,0.00
2022-10-10T02:23:52.060Z,0.00
2022-10-10T02:24:52.067Z,0.00
2022-10-10T02:25:52.047Z,0.00
2022-10-10T02:26:52.034Z,0.00
2022-10-10T02:27:52.016Z,0.00
2022-10-10T02:28:52.020Z,0.00
2022-10-10T02:29:51.989Z,0.00
2022-10-10T02:30:51.986Z,0.00
2022-10-10T02:31:51.947Z,0.00
2022-10-10T02:32:52.422Z,0.00
2022-10-10T02:33:51.942Z,0.00
2022-10-10T02:34:51.952Z,0.00
2022-10-10T02:35:51.920Z,0.00
2022-10-10T02:36:51.908Z,0.00
2022-10-10T02:37:51.874Z,0.00
2022-10-10T02:38:51.863Z,0.00
2022-10-10T02:39:51.864Z,0.00
2022-10-10T02:40:51.846Z,0.00
2022-10-10T02:41:51.840Z,0.00
2022-10-10T02:42:52.089Z,0.00
2022-10-10T02:43:51.805Z,0.00
2022-10-10T02:44:51.807Z,0.00
2022-10-10T02:45:51.764Z,0.00
2022-10-10T02:46:51.791Z,0.00
2022-10-10T02:47:51.753Z,0.00
2022-10-10T02:48:51.727Z,0.00
2022-10-10T02:49:51.727Z,0.00
2022-10-10T02:50:51.738Z,0.00
2022-10-10T02:51:51.702Z,0.00
2022-10-10T02:52:52.160Z,0.00
2022-10-10T02:53:51.677Z,0.00
2022-10-10T02:54:51.659Z,0.00
2022-10-10T02:55:51.634Z,0.00
2022-10-10T02:56:51.652Z,0.00
2022-10-10T02:57:51.609Z,0.00
2022-10-10T02:58:51.601Z,0.00
2022-10-10T02:59:51.629Z,0.00
2022-10-10T03:00:51.615Z,0.00
2022-10-10T03:01:51.563Z,0.00
2022-10-10T03:02:51.872Z,0.00
2022-10-10T03:03:51.532Z,0.00
2022-10-10T03:04:51.538Z,0.00
2022-10-10T03:05:51.503Z,0.00
2022-10-10T03:06:51.525Z,0.00
2022-10-10T03:07:51.518Z,0.00
2022-10-10T03:08:51.466Z,0.00
2022-10-10T03:09:51.451Z,0.00
2022-10-10T03:10:51.447Z,0.00
2022-10-10T03:11:51.429Z,0.00
2022-10-10T03:12:51.853Z,0.00
2022-10-10T03:13:51.411Z,0.00
2022-10-10T03:14:51.512Z,0.00
2022-10-10T03:15:51.370Z,0.00
2022-10-10T03:16:51.392Z,0.00
2022-10-10T03:17:51.384Z,0.00
2022-10-10T03:18:51.355Z,0.00
2022-10-10T03:19:51.346Z,0.00
2022-10-10T03:20:51.329Z,0.00
2022-10-10T03:21:51.310Z,0.00
2022-10-10T03:22:51.674Z,0.00
2022-10-10T03:23:51.283Z,0.00
2022-10-10T03:24:51.277Z,0.00
2022-10-10T03:25:51.240Z,0.00
2022-10-10T03:26:51.253Z,0.00
2022-10-10T03:27:51.240Z,0.00
2022-10-10T03:28:51.223Z,0.00
2022-10-10T03:29:51.222Z,0.00
2022-10-10T03:30:51.197Z,0.00
2022-10-10T03:31:51.193Z,0.00
2022-10-10T03:32:51.431Z,0.00
2022-10-10T03:33:51.137Z,0.00
2022-10-10T03:34:51.141Z,0.00
2022-10-10T03:35:51.109Z,0.00
2022-10-10T03:36:51.105Z,0.00
2022-10-10T03:37:51.092Z,0.00
2022-10-10T03:38:51.071Z,0.00
2022-10-10T03:39:51.073Z,0.00
2022-10-10T03:40:51.065Z,0.00
2022-10-10T03:41:51.056Z,0.00
2022-10-10T03:42:51.310Z,0.00
2022-10-10T03:43:51.029Z,0.00
2022-10-10T03:44:51.069Z,0.00
2022-10-10T03:45:50.991Z,0.00
2022-10-10T03:46:50.984Z,0.00
2022-10-10T03:47:51.003Z,0.00
2022-10-10T03:48:50.961Z,0.00
2022-10-10T03:49:50.962Z,0.00
2022-10-10T03:50:50.916Z,0.00
2022-10-10T03:51:50.927Z,0.00
2022-10-10T03:52:51.166Z,0.00
2022-10-10T03:53:50.893Z,0.00
2022-10-10T03:54:50.875Z,0.00
2022-10-10T03:55:50.862Z,0.00
2022-10-10T03:56:50.839Z,0.00
2022-10-10T03:57:50.862Z,0.00
2022-10-10T03:58:50.815Z,0.00
2022-10-10T03:59:50.814Z,0.00
2022-10-10T04:00:50.795Z,0.00
2022-10-10T04:01:50.796Z,0.00
2022-10-10T04:02:51.084Z,0.00
2022-10-10T04:03:52.257Z,0.00
2022-10-10T04:04:50.729Z,0.00
2022-10-10T04:05:50.750Z,0.00
2022-10-10T04:06:50.724Z,0.00
2022-10-10T04:07:50.721Z,0.00
2022-10-10T04:08:50.705Z,0.00
2022-10-10T04:09:50.681Z,0.00
2022-10-10T04:10:50.655Z,0.00
2022-10-10T04:11:50.654Z,0.00
2022-10-10T04:12:50.835Z,0.00
2022-10-10T04:13:50.640Z,0.00
2022-10-10T04:14:50.623Z,0.00
2022-10-10T04:15:50.608Z,0.00
2022-10-10T04:16:50.594Z,0.00
2022-10-10T04:17:50.568Z,0.00
2022-10-10T04:18:50.570Z,0.00
2022-10-10T04:19:50.547Z,0.00
2022-10-10T04:20:50.545Z,0.00
2022-10-10T04:21:50.540Z,0.00
2022-10-10T04:22:50.733Z,0.00
2022-10-10T04:23:50.488Z,0.00
2022-10-10T04:24:50.496Z,0.00
2022-10-10T04:25:50.482Z,0.00
2022-10-10T04:26:50.446Z,0.00
2022-10-10T04:27:50.453Z,0.00
2022-10-10T04:28:50.441Z,0.00
2022-10-10T04:29:50.436Z,0.00
2022-10-10T04:30:50.404Z,0.00
2022-10-10T04:31:50.425Z,0.00
2022-10-10T04:32:50.642Z,0.00
2022-10-10T04:33:50.382Z,0.00
2022-10-10T04:34:50.344Z,0.00
2022-10-10T04:35:50.376Z,0.00
2022-10-10T04:36:50.315Z,0.00
2022-10-10T04:37:50.340Z,0.00
2022-10-10T04:38:50.303Z,0.00
2022-10-10T04:39:50.323Z,0.00
2022-10-10T04:40:50.285Z,0.00
2022-10-10T04:41:50.278Z,0.00
2022-10-10T04:42:50.506Z,0.00
2022-10-10T04:43:50.246Z,0.00
2022-10-10T04:44:50.238Z,0.00
2022-10-10T04:45:50.223Z,0.00
2022-10-10T04:46:50.186Z,0.00
2022-10-10T04:47:50.211Z,0.00
2022-10-10T04:48:50.160Z,0.00
2022-10-10T04:49:50.156Z,4.00
2022-10-10T04:50:50.156Z,0.00
2022-10-10T04:51:50.135Z,0.00
2022-10-10T04:52:50.357Z,4.00
2022-10-10T04:53:50.672Z,4.00
2022-10-10T04:54:50.082Z,4.00
2022-10-10T04:55:50.079Z,4.00
2022-10-10T04:56:50.069Z,4.00
2022-10-10T04:57:50.066Z,8.00
2022-10-10T04:58:50.047Z,8.00
2022-10-10T04:59:50.045Z,12.00
2022-10-10T05:00:50.018Z,12.00
2022-10-10T05:01:50.024Z,12.00
2022-10-10T05:02:50.317Z,16.00
2022-10-10T05:03:49.988Z,20.00
2022-10-10T05:04:49.970Z,24.00
2022-10-10T05:05:49.981Z,28.00
2022-10-10T05:06:49.934Z,36.00
2022-10-10T05:07:55.156Z,40.00
2022-10-10T05:08:49.941Z,48.00
2022-10-10T05:09:49.890Z,56.00
2022-10-10T05:10:49.901Z,64.00
2022-10-10T05:11:49.867Z,76.00
2022-10-10T05:12:50.147Z,84.00
2022-10-10T05:13:49.841Z,92.00
2022-10-10T05:14:49.831Z,108.00
2022-10-10T05:15:49.835Z,120.00
2022-10-10T05:16:49.814Z,136.00
2022-10-10T05:17:49.808Z,152.00
2022-10-10T05:18:49.788Z,168.00
2022-10-10T05:19:49.766Z,184.00
2022-10-10T05:20:49.760Z,204.00
2022-10-10T05:21:49.753Z,228.00
2022-10-10T05:22:50.082Z,248.00
2022-10-10T05:23:49.711Z,268.00
2022-10-10T05:24:49.708Z,292.00
2022-10-10T05:25:49.716Z,316.00
2022-10-10T05:26:49.665Z,340.00
2022-10-10T05:27:49.674Z,368.00
2022-10-10T05:28:49.668Z,392.00
2022-10-10T05:29:49.632Z,420.00
2022-10-10T05:30:49.612Z,448.00
2022-10-10T05:31:49.625Z,476.00
2022-10-10T05:32:49.954Z,508.00
2022-10-10T05:33:49.609Z,536.00
2022-10-10T05:34:49.560Z,564.00
2022-10-10T05:35:49.576Z,596.00
2022-10-10T05:36:49.550Z,628.00
2022-10-10T05:37:49.533Z,660.00
2022-10-10T05:38:49.529Z,692.00
2022-10-10T05:39:54.376Z,724.00
2022-10-10T05:40:49.501Z,760.00
2022-10-10T05:41:49.494Z,792.00
2022-10-10T05:42:49.780Z,828.00
2022-10-10T05:43:49.458Z,860.00
2022-10-10T05:44:49.456Z,896.00
2022-10-10T05:45:49.419Z,928.00
2022-10-10T05:46:49.419Z,964.00
2022-10-10T05:47:49.424Z,1008.00
2022-10-10T05:48:49.380Z,1052.00
2022-10-10T05:49:49.378Z,1096.00
2022-10-10T05:50:49.372Z,1148.00
2022-10-10T05:51:49.400Z,1196.00
2022-10-10T05:52:49.731Z,1240.00
2022-10-10T05:53:49.354Z,1316.00
2022-10-10T05:54:49.312Z,1380.00
2022-10-10T05:55:49.311Z,1436.00
2022-10-10T05:56:49.294Z,1484.00
2022-10-10T05:57:49.284Z,1548.00
2022-10-10T05:58:49.246Z,1604.00
2022-10-10T05:59:49.248Z,1632.00
2022-10-10T06:00:49.240Z,1648.00
2022-10-10T06:01:49.211Z,1636.00
2022-10-10T06:02:49.642Z,1632.00
2022-10-10T06:03:49.206Z,1628.00
2022-10-10T06:04:49.195Z,1600.00
2022-10-10T06:05:49.178Z,1544.00
2022-10-10T06:06:49.179Z,1528.00
2022-10-10T06:08:09.186Z,1520.00
2022-10-10T06:08:49.126Z,1492.00
2022-10-10T06:09:49.118Z,1496.00
2022-10-10T06:10:49.102Z,1520.00
2022-10-10T06:11:49.090Z,1492.00
2022-10-10T06:12:49.434Z,1452.00
2022-10-10T06:13:49.076Z,1448.00
2022-10-10T06:14:49.054Z,1440.00
2022-10-10T06:15:49.048Z,1428.00
2022-10-10T06:16:49.013Z,1404.00
2022-10-10T06:17:49.029Z,1396.00
2022-10-10T06:18:49.003Z,1396.00
2022-10-10T06:19:48.998Z,1408.00
2022-10-10T06:20:48.988Z,1424.00
2022-10-10T06:21:48.975Z,1444.00
2022-10-10T06:22:49.251Z,1464.00
2022-10-10T06:23:48.926Z,1492.00
2022-10-10T06:24:52.906Z,1532.00
2022-10-10T06:25:48.898Z,1576.00
2022-10-10T06:26:48.882Z,1628.00
2022-10-10T06:27:48.901Z,1708.00
2022-10-10T06:28:48.914Z,1796.00
2022-10-10T06:29:48.866Z,1884.00
2022-10-10T06:30:48.834Z,1952.00
2022-10-10T06:31:49.085Z,2020.00
2022-10-10T06:32:50.845Z,2056.00
2022-10-10T06:33:48.810Z,2116.00
2022-10-10T06:34:48.785Z,2160.00
2022-10-10T06:35:48.766Z,2204.00
2022-10-10T06:36:48.767Z,2244.00
2022-10-10T06:37:48.742Z,2280.00
2022-10-10T06:38:48.740Z,2320.00
2022-10-10T06:39:48.748Z,2356.00
2022-10-10T06:40:48.715Z,2404.00
2022-10-10T06:41:48.713Z,2456.00
2022-10-10T06:42:48.986Z,2508.00
2022-10-10T06:43:48.680Z,2564.00
2022-10-10T06:44:48.671Z,2628.00
2022-10-10T06:45:48.635Z,2692.00
2022-10-10T06:46:48.652Z,2760.00
2022-10-10T06:47:48.637Z,2844.00
2022-10-10T06:48:48.620Z,2928.00
2022-10-10T06:49:48.608Z,3020.00
2022-10-10T06:50:48.569Z,3116.00
2022-10-10T06:51:48.584Z,3212.00
2022-10-10T06:52:48.899Z,3312.00
2022-10-10T06:53:48.552Z,3416.00
2022-10-10T06:54:48.517Z,3528.00
2022-10-10T06:55:48.534Z,3620.00
2022-10-10T06:56:48.514Z,3672.00
2022-10-10T06:57:48.480Z,3680.00
2022-10-10T06:58:48.471Z,3728.00
2022-10-10T06:59:48.474Z,3744.00
2022-10-10T07:00:48.435Z,3772.00
2022-10-10T07:01:48.500Z,3840.00
2022-10-10T07:02:48.731Z,3900.00
2022-10-10T07:03:48.430Z,4004.00
2022-10-10T07:04:48.400Z,4116.00
2022-10-10T07:05:48.374Z,4264.00
2022-10-10T07:06:48.364Z,4404.00
2022-10-10T07:07:48.359Z,4468.00
2022-10-10T07:08:48.329Z,4508.00
2022-10-10T07:09:48.328Z,4564.00
2022-10-10T07:10:48.313Z,4704.00
2022-10-10T07:11:48.320Z,4712.00
2022-10-10T07:12:48.302Z,4740.00
2022-10-10T07:13:48.270Z,4788.00
2022-10-10T07:14:48.303Z,4748.00
2022-10-10T07:15:48.249Z,4788.00
2022-10-10T07:16:48.227Z,4784.00
2022-10-10T07:17:53.415Z,4868.00
2022-10-10T07:18:48.207Z,4808.00
2022-10-10T07:19:48.215Z,4824.00
2022-10-10T07:20:48.205Z,4804.00
2022-10-10T07:21:48.164Z,4728.00
2022-10-10T07:22:48.360Z,4604.00
2022-10-10T07:23:48.140Z,4488.00
2022-10-10T07:24:48.144Z,4396.00
2022-10-10T07:25:48.130Z,4404.00
2022-10-10T07:26:48.137Z,4584.00
2022-10-10T07:27:48.119Z,4716.00
2022-10-10T07:28:48.112Z,4908.00
2022-10-10T07:29:48.059Z,5092.00
2022-10-10T07:30:48.072Z,5252.00
2022-10-10T07:31:48.051Z,5308.00
2022-10-10T07:32:48.300Z,5236.00
2022-10-10T07:33:50.429Z,5176.00
2022-10-10T07:34:47.987Z,5168.00
2022-10-10T07:35:47.974Z,5136.00
2022-10-10T07:36:47.965Z,5232.00
2022-10-10T07:37:47.968Z,5564.00
2022-10-10T07:38:47.956Z,5900.00
2022-10-10T07:39:47.926Z,6144.00
2022-10-10T07:40:47.919Z,6452.00
2022-10-10T07:41:47.934Z,6844.00
2022-10-10T07:42:48.005Z,7172.00
2022-10-10T07:43:47.931Z,7600.00
2022-10-10T07:44:47.918Z,7900.00
2022-10-10T07:45:47.868Z,8204.00
2022-10-10T07:46:47.864Z,8608.00
2022-10-10T07:47:47.992Z,9172.00
2022-10-10T07:48:47.826Z,9636.00
2022-10-10T07:49:47.806Z,9716.00
2022-10-10T07:50:47.795Z,10052.00
2022-10-10T07:51:47.798Z,9916.00
2022-10-10T07:52:47.748Z,9612.00
2022-10-10T07:53:47.754Z,9476.00
2022-10-10T07:54:47.773Z,9708.00
2022-10-10T07:55:47.708Z,9920.00
2022-10-10T07:56:47.720Z,10204.00
2022-10-10T07:57:52.498Z,10308.00
2022-10-10T07:58:47.688Z,10520.00
2022-10-10T07:59:47.690Z,10564.00
2022-10-10T08:00:47.664Z,10888.00
2022-10-10T08:01:47.678Z,10984.00
2022-10-10T08:02:47.624Z,11128.00
2022-10-10T08:03:47.682Z,11152.00
2022-10-10T08:04:47.663Z,11224.00
2022-10-10T08:05:47.652Z,11216.00
2022-10-10T08:06:47.649Z,11188.00
2022-10-10T08:07:47.563Z,11052.00
2022-10-10T08:08:51.386Z,10576.00
2022-10-10T08:09:47.565Z,9772.00
2022-10-10T08:10:47.536Z,8776.00
2022-10-10T08:11:47.573Z,7716.00
2022-10-10T08:12:47.531Z,6884.00
2022-10-10T08:13:47.493Z,6296.00
2022-10-10T08:14:47.513Z,6020.00
2022-10-10T08:15:47.448Z,5876.00
2022-10-10T08:16:47.476Z,5840.00
2022-10-10T08:17:47.466Z,5768.00
2022-10-10T08:18:47.426Z,5664.00
2022-10-10T08:19:47.420Z,5564.00
2022-10-10T08:20:47.409Z,5536.00
2022-10-10T08:21:47.423Z,5588.00
2022-10-10T08:22:47.364Z,5748.00
2022-10-10T08:23:47.374Z,5576.00
2022-10-10T08:24:47.350Z,5676.00
2022-10-10T08:25:47.335Z,5556.00
2022-10-10T08:26:47.321Z,5504.00
2022-10-10T08:27:47.320Z,5404.00
2022-10-10T08:28:47.387Z,6524.00
2022-10-10T08:29:47.286Z,8512.00
2022-10-10T08:30:47.274Z,8324.00
2022-10-10T08:31:47.250Z,6580.00
2022-10-10T08:32:47.237Z,8088.00
2022-10-10T08:33:47.216Z,8456.00
2022-10-10T08:34:47.281Z,16352.00
2022-10-10T08:35:47.180Z,29088.00
2022-10-10T08:36:47.171Z,29344.00
2022-10-10T08:37:47.172Z,29984.00
2022-10-10T08:38:47.165Z,30016.00
2022-10-10T08:39:47.209Z,31328.00
2022-10-10T08:40:47.155Z,32192.00
2022-10-10T08:41:47.159Z,32544.00
2022-10-10T08:42:52.527Z,32768.00
2022-10-10T08:43:47.116Z,32640.00
2022-10-10T08:44:47.108Z,32832.00
2022-10-10T08:45:47.065Z,32288.00
2022-10-10T08:46:47.060Z,31968.00
2022-10-10T08:47:47.058Z,32768.00
2022-10-10T08:48:47.036Z,33344.00
2022-10-10T08:49:48.009Z,33376.00
2022-10-10T08:50:47.039Z,33824.00
2022-10-10T08:51:47.010Z,33504.00
2022-10-10T08:52:47.020Z,34016.00
2022-10-10T08:53:47.043Z,34784.00
2022-10-10T08:54:47.063Z,34400.00
2022-10-10T08:55:46.964Z,34432.00
2022-10-10T08:56:46.950Z,34208.00
2022-10-10T08:57:46.944Z,34176.00
2022-10-10T08:58:46.987Z,35616.00
2022-10-10T08:59:46.931Z,36736.00
2022-10-10T09:00:46.948Z,36928.00
2022-10-10T09:02:18.666Z,37952.00
2022-10-10T09:02:54.629Z,34400.00
2022-10-10T09:03:46.953Z,29344.00
2022-10-10T09:04:46.848Z,16384.00
2022-10-10T09:05:46.818Z,17312.00
2022-10-10T09:06:46.799Z,18912.00
2022-10-10T09:07:46.773Z,13872.00
2022-10-10T09:08:46.751Z,13376.00
2022-10-10T09:09:46.755Z,19072.00
2022-10-10T09:10:46.724Z,25280.00
2022-10-10T09:11:46.730Z,35328.00
2022-10-10T09:12:46.723Z,14924.00
2022-10-10T09:13:46.679Z,31008.00
2022-10-10T09:14:46.688Z,42048.00
2022-10-10T09:15:46.648Z,40480.00
2022-10-10T09:16:46.700Z,40224.00
2022-10-10T09:17:46.734Z,39584.00
2022-10-10T09:18:46.652Z,39360.00
2022-10-10T09:19:46.601Z,39648.00
2022-10-10T09:20:46.588Z,39520.00
2022-10-10T09:21:46.591Z,40000.00
2022-10-10T09:22:46.641Z,39840.00
2022-10-10T09:23:46.574Z,40096.00
2022-10-10T09:24:46.535Z,36736.00
2022-10-10T09:25:46.520Z,36032.00
2022-10-10T09:26:46.511Z,41056.00
2022-10-10T09:27:46.509Z,41376.00
2022-10-10T09:28:46.562Z,41728.00
2022-10-10T09:29:46.470Z,42048.00
2022-10-10T09:30:46.459Z,41856.00
2022-10-10T09:31:46.481Z,41568.00
2022-10-10T09:32:46.442Z,42144.00
2022-10-10T09:33:46.435Z,42208.00
2022-10-10T09:34:46.417Z,42720.00
2022-10-10T09:35:46.406Z,43040.00
2022-10-10T09:36:46.402Z,43328.00
2022-10-10T09:37:47.919Z,43264.00
2022-10-10T09:38:46.374Z,43808.00
2022-10-10T09:39:46.346Z,43776.00
2022-10-10T09:40:46.349Z,44032.00
2022-10-10T09:41:46.324Z,43904.00
2022-10-10T09:42:46.323Z,44064.00
2022-10-10T09:43:46.312Z,44032.00
2022-10-10T09:44:46.323Z,43616.00
2022-10-10T09:45:46.277Z,44064.00
2022-10-10T09:46:46.262Z,43968.00
2022-10-10T09:47:46.243Z,43872.00
2022-10-10T09:48:46.222Z,43008.00
2022-10-10T09:49:46.289Z,39584.00
2022-10-10T09:50:46.213Z,31232.00
2022-10-10T09:51:46.246Z,24736.00
2022-10-10T09:52:46.208Z,20064.00
2022-10-10T09:53:46.181Z,23616.00
2022-10-10T09:54:46.145Z,21952.00
2022-10-10T09:55:46.178Z,20640.00
2022-10-10T09:56:46.137Z,15536.00
2022-10-10T09:57:46.133Z,11884.00
2022-10-10T09:58:46.138Z,13248.00
2022-10-10T09:59:46.175Z,19104.00
2022-10-10T10:00:46.139Z,19648.00
2022-10-10T10:01:46.094Z,23200.00
2022-10-10T10:02:46.042Z,22176.00
2022-10-10T10:03:46.035Z,19328.00
2022-10-10T10:04:46.032Z,16268.00
2022-10-10T10:05:45.989Z,17440.00
2022-10-10T10:06:45.982Z,29312.00
2022-10-10T10:07:45.991Z,38752.00
2022-10-10T10:08:49.856Z,26240.00
2022-10-10T10:09:45.954Z,27872.00
2022-10-10T10:10:45.937Z,32480.00
2022-10-10T10:11:45.941Z,33280.00
2022-10-10T10:12:45.915Z,30912.00
2022-10-10T10:13:45.906Z,28000.00
2022-10-10T10:14:45.889Z,22880.00
2022-10-10T10:15:45.860Z,22464.00
2022-10-10T10:16:45.851Z,24576.00
2022-10-10T10:17:45.831Z,32096.00
2022-10-10T10:18:45.850Z,32032.00
2022-10-10T10:19:45.927Z,31232.00
2022-10-10T10:20:45.798Z,27680.00
2022-10-10T10:21:45.783Z,23104.00
2022-10-10T10:22:45.855Z,32160.00
2022-10-10T10:23:45.754Z,34112.00
2022-10-10T10:24:45.749Z,24704.00
2022-10-10T10:25:45.725Z,22464.00
2022-10-10T10:26:45.750Z,22880.00
2022-10-10T10:27:45.699Z,23584.00
2022-10-10T10:28:45.789Z,24704.00
2022-10-10T10:29:45.673Z,24288.00
2022-10-10T10:30:45.672Z,22144.00
2022-10-10T10:31:45.646Z,18496.00
2022-10-10T10:32:45.662Z,18464.00
2022-10-10T10:33:45.626Z,21952.00
2022-10-10T10:34:45.628Z,23712.00
2022-10-10T10:35:45.609Z,23712.00
2022-10-10T10:36:45.606Z,18496.00
2022-10-10T10:37:45.572Z,20576.00
2022-10-10T10:38:45.559Z,21568.00
2022-10-10T10:39:45.556Z,28704.00
2022-10-10T10:40:45.537Z,58400.00
2022-10-10T10:41:45.764Z,60416.00
2022-10-10T10:42:45.547Z,59968.00
2022-10-10T10:43:45.497Z,59552.00
2022-10-10T10:44:45.482Z,60352.00
2022-10-10T10:45:45.462Z,39936.00
2022-10-10T10:46:45.474Z,29664.00
2022-10-10T10:47:45.460Z,39328.00
2022-10-10T10:48:45.448Z,44768.00
2022-10-10T10:49:45.430Z,37408.00
2022-10-10T10:50:45.425Z,31712.00
2022-10-10T10:51:45.402Z,30304.00
2022-10-10T10:52:45.394Z,31104.00
2022-10-10T10:53:45.368Z,30496.00
2022-10-10T10:54:45.653Z,31840.00
2022-10-10T10:55:45.334Z,27840.00
2022-10-10T10:56:45.352Z,24064.00
2022-10-10T10:58:22.397Z,26176.00
2022-10-10T11:00:32.995Z,46688.00
2022-10-10T11:01:28.003Z,49280.00
2022-10-10T11:01:56.041Z,62336.00
2022-10-10T11:02:59.548Z,65024.00
2022-10-10T11:05:19.393Z,44096.00
2022-10-10T11:05:40.569Z,57440.00
2022-10-10T11:05:46.223Z,57088.00
2022-10-10T11:06:59.955Z,54048.00
2022-10-10T11:07:45.259Z,52896.00
2022-10-10T11:08:45.227Z,53024.00
2022-10-10T11:09:50.109Z,52160.00
2022-10-10T11:10:45.172Z,52960.00
2022-10-10T11:11:45.120Z,53568.00
2022-10-10T11:12:45.123Z,53472.00
2022-10-10T11:13:45.112Z,54496.00
2022-10-10T11:14:45.122Z,53792.00
2022-10-10T11:16:05.481Z,52832.00
2022-10-10T11:16:48.455Z,52576.00
2022-10-10T11:17:45.043Z,52160.00
2022-10-10T11:18:45.072Z,52160.00
2022-10-10T11:19:45.037Z,51904.00
2022-10-10T11:20:45.049Z,43232.00
2022-10-10T11:21:44.998Z,52256.00
2022-10-10T11:32:22.058Z,48992.00
2022-10-10T11:32:27.707Z,51680.00
2022-10-10T11:33:27.685Z,52576.00
2022-10-10T11:34:27.702Z,52224.00
2022-10-10T11:35:27.669Z,50880.00
2022-10-10T11:36:27.653Z,40832.00
2022-10-10T11:37:27.621Z,31616.00
2022-10-10T11:38:27.645Z,24448.00
2022-10-10T11:39:27.584Z,33312.00
2022-10-10T11:40:27.578Z,40288.00
2022-10-10T11:41:27.563Z,51872.00
2022-10-10T11:42:27.564Z,54112.00
2022-10-10T11:43:27.562Z,54688.00
2022-10-10T11:44:27.517Z,51744.00
2022-10-10T11:45:27.523Z,55648.00
2022-10-10T11:46:27.522Z,54816.00
2022-10-10T11:47:27.475Z,54304.00
2022-10-10T11:48:27.505Z,52928.00
2022-10-10T11:49:27.449Z,52256.00
2022-10-10T11:50:27.485Z,52064.00
2022-10-10T11:51:27.441Z,50112.00
2022-10-10T11:52:35.127Z,50464.00
2022-10-10T11:53:27.407Z,48896.00
2022-10-10T11:54:27.397Z,48960.00
2022-10-10T11:55:27.379Z,47648.00
2022-10-10T11:56:27.401Z,47776.00
2022-10-10T11:57:27.370Z,47808.00
2022-10-10T11:58:27.338Z,47648.00
2022-10-10T11:59:27.345Z,47456.00
2022-10-10T12:00:27.330Z,47840.00
2022-10-10T12:01:27.295Z,46656.00
2022-10-10T12:02:28.131Z,46720.00
2022-10-10T12:03:27.301Z,46976.00
2022-10-10T12:04:27.271Z,46368.00
2022-10-10T12:05:27.246Z,46272.00
2022-10-10T12:06:27.260Z,46432.00
2022-10-10T12:07:27.241Z,45696.00
2022-10-10T12:08:27.215Z,45344.00
2022-10-10T12:09:27.217Z,46336.00
2022-10-10T12:10:27.218Z,45216.00
2022-10-10T12:11:27.201Z,44928.00
2022-10-10T12:12:27.284Z,44832.00
2022-10-10T12:13:27.183Z,45024.00
2022-10-10T12:14:27.141Z,44064.00
2022-10-10T12:15:27.136Z,44704.00
2022-10-10T12:16:30.570Z,45344.00
2022-10-10T12:17:27.118Z,45312.00
2022-10-10T12:18:27.094Z,44896.00
2022-10-10T12:19:27.067Z,45120.00
2022-10-10T12:20:27.059Z,45536.00
2022-10-10T12:21:27.069Z,45248.00
2022-10-10T12:22:27.040Z,45344.00
2022-10-10T12:23:27.052Z,44704.00
2022-10-10T12:24:27.037Z,45088.00
2022-10-10T12:25:27.020Z,44384.00
2022-10-10T12:26:26.994Z,44800.00
2022-10-10T12:27:26.999Z,44352.00
2022-10-10T12:28:27.053Z,44000.00
2022-10-10T12:29:26.957Z,43968.00
2022-10-10T12:30:26.953Z,43968.00
2022-10-10T12:31:26.977Z,43872.00
2022-10-10T12:32:26.915Z,43904.00
2022-10-10T12:33:26.921Z,44480.00
2022-10-10T12:34:26.886Z,43840.00
2022-10-10T12:35:26.887Z,43776.00
2022-10-10T12:36:26.880Z,43872.00
2022-10-10T12:37:26.850Z,43616.00